createdAt,value
2016-12-05T00:00:14.710Z,16.87
2016-12-05T00:00:42.875Z,16.92
2016-12-05T00:01:11.024Z,16.94
2016-12-05T00:01:39.189Z,16.86
2016-12-05T00:02:07.352Z,16.77
2016-12-05T00:02:35.610Z,16.76
2016-12-05T00:03:03.768Z,16.8
2016-12-05T00:03:31.905Z,16.69
2016-12-05T00:04:00.087Z,16.72
2016-12-05T00:04:28.285Z,16.72
2016-12-05T00:04:56.438Z,16.72
2016-12-05T00:05:24.704Z,16.69
2016-12-05T00:05:52.894Z,16.73
2016-12-05T00:06:21.085Z,16.64
2016-12-05T00:06:49.261Z,16.65
2016-12-05T00:07:17.539Z,16.64
2016-12-05T00:07:45.704Z,16.61
2016-12-05T00:08:13.884Z,16.64
2016-12-05T00:08:42.047Z,16.65
2016-12-05T00:09:10.224Z,16.64
2016-12-05T00:09:38.418Z,16.65
2016-12-05T00:10:06.610Z,16.66
2016-12-05T00:10:34.780Z,16.62
2016-12-05T00:11:03.440Z,16.68
2016-12-05T00:11:31.716Z,16.64
2016-12-05T00:11:59.895Z,16.62
2016-12-05T00:12:28.087Z,16.58
2016-12-05T00:12:56.249Z,16.59
2016-12-05T00:13:24.406Z,16.58
2016-12-05T00:13:52.536Z,16.57
2016-12-05T00:14:20.869Z,16.62
2016-12-05T00:14:49.041Z,16.66
2016-12-05T00:15:17.219Z,16.68
2016-12-05T00:15:45.419Z,16.69
2016-12-05T00:16:13.588Z,16.68
2016-12-05T00:16:41.747Z,16.69
2016-12-05T00:17:09.927Z,16.66
2016-12-05T00:17:38.086Z,16.68
2016-12-05T00:18:06.245Z,16.64
2016-12-05T00:18:34.484Z,16.73
2016-12-05T00:19:02.664Z,16.62
2016-12-05T00:19:30.846Z,16.69
2016-12-05T00:19:59.024Z,16.66
2016-12-05T00:20:27.200Z,16.66
2016-12-05T00:20:55.370Z,16.66
2016-12-05T00:21:23.571Z,16.69
2016-12-05T00:21:51.823Z,16.68
2016-12-05T00:22:19.973Z,16.72
2016-12-05T00:22:48.151Z,16.68
2016-12-05T00:23:16.336Z,16.58
2016-12-05T00:23:44.520Z,16.61
2016-12-05T00:24:12.720Z,16.62
2016-12-05T00:24:40.912Z,16.61
2016-12-05T00:25:09.099Z,16.64
2016-12-05T00:25:37.241Z,16.51
2016-12-05T00:26:05.694Z,16.5
2016-12-05T00:26:33.870Z,16.57
2016-12-05T00:27:02.088Z,16.5
2016-12-05T00:27:30.337Z,16.57
2016-12-05T00:27:58.564Z,16.58
2016-12-05T00:28:26.709Z,16.51
2016-12-05T00:28:54.881Z,16.55
2016-12-05T00:29:23.071Z,16.59
2016-12-05T00:29:51.237Z,16.55
2016-12-05T00:30:19.404Z,16.59
2016-12-05T00:30:47.578Z,16.66
2016-12-05T00:31:15.753Z,16.58
2016-12-05T00:31:44.025Z,16.51
2016-12-05T00:32:12.166Z,16.58
2016-12-05T00:32:40.330Z,16.62
2016-12-05T00:33:08.497Z,16.66
2016-12-05T00:33:36.779Z,16.69
2016-12-05T00:34:04.966Z,16.59
2016-12-05T00:34:33.139Z,16.69
2016-12-05T00:35:01.318Z,16.62
2016-12-05T00:35:29.512Z,16.65
2016-12-05T00:35:57.876Z,16.65
2016-12-05T00:36:26.043Z,16.64
2016-12-05T00:36:54.187Z,16.62
2016-12-05T00:37:22.353Z,16.68
2016-12-05T00:37:50.522Z,16.61
2016-12-05T00:38:18.681Z,16.68
2016-12-05T00:38:46.839Z,16.59
2016-12-05T00:39:14.990Z,16.72
2016-12-05T00:39:43.151Z,16.72
2016-12-05T00:40:11.343Z,16.66
2016-12-05T00:40:39.530Z,16.69
2016-12-05T00:41:07.686Z,16.72
2016-12-05T00:41:35.830Z,16.65
2016-12-05T00:42:04.002Z,16.72
2016-12-05T00:42:32.168Z,16.66
2016-12-05T00:43:00.338Z,16.69
2016-12-05T00:43:28.524Z,16.68
2016-12-05T00:43:56.672Z,16.73
2016-12-05T00:44:25.014Z,16.73
2016-12-05T00:44:53.222Z,16.77
2016-12-05T00:45:21.397Z,16.72
2016-12-05T00:45:49.548Z,16.69
2016-12-05T00:46:17.715Z,16.73
2016-12-05T00:46:45.914Z,16.72
2016-12-05T00:47:14.079Z,16.73
2016-12-05T00:47:42.215Z,16.79
2016-12-05T00:48:10.367Z,16.76
2016-12-05T00:48:38.527Z,16.76
2016-12-05T00:49:07.095Z,16.76
2016-12-05T00:49:35.276Z,16.72
2016-12-05T00:50:03.501Z,16.77
2016-12-05T00:50:31.744Z,16.73
2016-12-05T00:50:59.905Z,16.74
2016-12-05T00:51:28.170Z,16.79
2016-12-05T00:51:56.390Z,16.76
2016-12-05T00:52:24.551Z,16.77
2016-12-05T00:52:52.894Z,16.77
2016-12-05T00:53:21.061Z,16.76
2016-12-05T00:53:49.221Z,16.86
2016-12-05T00:54:17.490Z,16.84
2016-12-05T00:54:45.773Z,16.84
2016-12-05T00:55:14.038Z,16.86
2016-12-05T00:55:42.244Z,16.84
2016-12-05T00:56:10.470Z,16.84
2016-12-05T00:56:38.622Z,16.89
2016-12-05T00:57:06.784Z,16.89
2016-12-05T00:57:34.972Z,16.91
2016-12-05T00:58:03.119Z,16.89
2016-12-05T00:58:31.275Z,16.87
2016-12-05T00:58:59.461Z,16.92
2016-12-05T00:59:27.635Z,16.98
2016-12-05T00:59:55.805Z,16.91
2016-12-05T01:00:23.999Z,16.97
2016-12-05T01:00:52.140Z,16.87
2016-12-05T01:01:20.319Z,16.99
2016-12-05T01:01:48.507Z,16.99
2016-12-05T01:02:16.665Z,17.05
2016-12-05T01:02:44.911Z,17.02
2016-12-05T01:03:13.073Z,16.99
2016-12-05T01:03:41.341Z,17.13
2016-12-05T01:04:09.529Z,17.13
2016-12-05T01:04:37.714Z,17.16
2016-12-05T01:05:05.932Z,17.14
2016-12-05T01:05:34.098Z,17.23
2016-12-05T01:06:02.234Z,17.24
2016-12-05T01:06:30.392Z,17.37
2016-12-05T01:06:58.551Z,17.35
2016-12-05T01:07:26.739Z,17.37
2016-12-05T01:07:55.000Z,17.34
2016-12-05T01:08:23.169Z,17.46
2016-12-05T01:08:51.323Z,17.41
2016-12-05T01:09:19.518Z,17.42
2016-12-05T01:09:47.678Z,17.46
2016-12-05T01:10:15.846Z,17.47
2016-12-05T01:10:44.079Z,17.46
2016-12-05T01:11:12.407Z,17.41
2016-12-05T01:11:40.619Z,17.49
2016-12-05T01:12:08.904Z,17.47
2016-12-05T01:12:37.069Z,17.46
2016-12-05T01:13:05.239Z,17.41
2016-12-05T01:13:33.402Z,17.46
2016-12-05T01:14:01.562Z,17.41
2016-12-05T01:14:29.688Z,17.44
2016-12-05T01:14:57.846Z,17.42
2016-12-05T01:15:26.023Z,17.38
2016-12-05T01:15:54.236Z,17.39
2016-12-05T01:16:22.374Z,17.39
2016-12-05T01:16:50.566Z,17.35
2016-12-05T01:17:18.742Z,17.42
2016-12-05T01:17:46.975Z,17.35
2016-12-05T01:18:15.175Z,17.38
2016-12-05T01:18:43.378Z,17.41
2016-12-05T01:19:11.542Z,17.37
2016-12-05T01:19:39.884Z,17.35
2016-12-05T01:20:08.068Z,17.38
2016-12-05T01:20:36.211Z,17.49
2016-12-05T01:21:04.380Z,17.35
2016-12-05T01:21:32.561Z,17.34
2016-12-05T01:22:00.717Z,17.32
2016-12-05T01:22:28.885Z,17.32
2016-12-05T01:22:57.056Z,17.42
2016-12-05T01:23:25.216Z,17.31
2016-12-05T01:23:53.409Z,17.39
2016-12-05T01:24:21.568Z,17.34
2016-12-05T01:24:49.732Z,17.37
2016-12-05T01:25:17.898Z,17.35
2016-12-05T01:25:46.162Z,17.34
2016-12-05T01:26:14.319Z,17.37
2016-12-05T01:26:42.565Z,17.37
2016-12-05T01:27:10.767Z,17.38
2016-12-05T01:27:38.955Z,17.34
2016-12-05T01:28:07.150Z,17.39
2016-12-05T01:28:35.334Z,17.35
2016-12-05T01:29:03.511Z,17.37
2016-12-05T01:29:31.778Z,17.35
2016-12-05T01:29:59.958Z,17.38
2016-12-05T01:30:28.133Z,17.38
2016-12-05T01:30:56.281Z,17.38
2016-12-05T01:31:24.444Z,17.37
2016-12-05T01:31:52.604Z,17.34
2016-12-05T01:32:20.788Z,17.32
2016-12-05T01:32:49.057Z,17.31
2016-12-05T01:33:17.252Z,17.3
2016-12-05T01:33:45.429Z,17.38
2016-12-05T01:34:13.617Z,17.27
2016-12-05T01:34:41.879Z,17.3
2016-12-05T01:35:10.038Z,17.34
2016-12-05T01:35:38.216Z,17.37
2016-12-05T01:36:06.385Z,17.34
2016-12-05T01:36:34.564Z,17.28
2016-12-05T01:37:02.854Z,17.37
2016-12-05T01:37:31.016Z,17.32
2016-12-05T01:37:59.189Z,17.32
2016-12-05T01:38:27.348Z,17.32
2016-12-05T01:38:55.528Z,17.34
2016-12-05T01:39:23.890Z,17.31
2016-12-05T01:39:52.050Z,17.34
2016-12-05T01:40:20.220Z,17.31
2016-12-05T01:40:48.375Z,17.35
2016-12-05T01:41:16.542Z,17.31
2016-12-05T01:41:44.937Z,17.35
2016-12-05T01:42:13.112Z,17.38
2016-12-05T01:42:41.310Z,17.35
2016-12-05T01:43:09.487Z,17.35
2016-12-05T01:43:37.638Z,17.42
2016-12-05T01:44:05.905Z,17.34
2016-12-05T01:44:34.070Z,17.37
2016-12-05T01:45:02.264Z,17.39
2016-12-05T01:45:30.429Z,17.32
2016-12-05T01:45:58.706Z,17.39
2016-12-05T01:46:26.858Z,17.32
2016-12-05T01:46:55.057Z,17.24
2016-12-05T01:47:23.241Z,17.24
2016-12-05T01:47:51.417Z,17.34
2016-12-05T01:48:19.628Z,17.23
2016-12-05T01:48:47.783Z,17.3
2016-12-05T01:49:15.979Z,17.24
2016-12-05T01:49:44.141Z,17.23
2016-12-05T01:50:12.315Z,17.27
2016-12-05T01:50:40.520Z,17.22
2016-12-05T01:51:08.706Z,17.24
2016-12-05T01:51:36.876Z,17.24
2016-12-05T01:52:05.074Z,17.17
2016-12-05T01:52:33.350Z,17.2
2016-12-05T01:53:01.528Z,17.2
2016-12-05T01:53:29.679Z,17.24
2016-12-05T01:53:57.849Z,17.27
2016-12-05T01:54:26.036Z,17.24
2016-12-05T01:54:54.202Z,17.2
2016-12-05T01:55:22.374Z,17.22
2016-12-05T01:55:50.548Z,17.34
2016-12-05T01:56:18.702Z,17.24
2016-12-05T01:56:46.892Z,17.24
2016-12-05T01:57:15.076Z,17.27
2016-12-05T01:57:43.394Z,17.3
2016-12-05T01:58:11.560Z,17.32
2016-12-05T01:58:39.765Z,17.23
2016-12-05T01:59:07.939Z,17.23
2016-12-05T01:59:36.122Z,17.24
2016-12-05T02:00:04.293Z,17.28
2016-12-05T02:00:32.543Z,17.22
2016-12-05T02:01:00.839Z,17.19
2016-12-05T02:01:28.984Z,17.19
2016-12-05T02:01:57.156Z,17.24
2016-12-05T02:02:25.318Z,17.24
2016-12-05T02:02:53.461Z,17.23
2016-12-05T02:03:21.674Z,17.19
2016-12-05T02:03:49.844Z,17.2
2016-12-05T02:04:17.991Z,17.17
2016-12-05T02:04:46.229Z,17.2
2016-12-05T02:05:14.395Z,17.23
2016-12-05T02:05:42.565Z,17.19
2016-12-05T02:06:10.741Z,17.27
2016-12-05T02:06:38.904Z,17.19
2016-12-05T02:07:07.056Z,17.22
2016-12-05T02:07:35.233Z,17.22
2016-12-05T02:08:03.384Z,17.24
2016-12-05T02:08:31.567Z,17.22
2016-12-05T02:08:59.807Z,17.22
2016-12-05T02:09:27.994Z,17.16
2016-12-05T02:09:56.179Z,17.19
2016-12-05T02:10:24.352Z,17.22
2016-12-05T02:10:52.523Z,17.2
2016-12-05T02:11:20.706Z,17.17
2016-12-05T02:11:48.885Z,17.22
2016-12-05T02:12:17.047Z,17.16
2016-12-05T02:12:45.208Z,17.17
2016-12-05T02:13:13.394Z,17.17
2016-12-05T02:13:41.539Z,17.2
2016-12-05T02:14:09.673Z,17.19
2016-12-05T02:14:37.837Z,17.24
2016-12-05T02:15:06.125Z,17.24
2016-12-05T02:15:34.272Z,17.2
2016-12-05T02:16:02.455Z,17.22
2016-12-05T02:16:30.667Z,17.19
2016-12-05T02:16:58.842Z,17.24
2016-12-05T02:17:27.044Z,17.24
2016-12-05T02:17:55.207Z,17.31
2016-12-05T02:18:23.498Z,17.32
2016-12-05T02:18:51.654Z,17.31
2016-12-05T02:19:19.893Z,17.39
2016-12-05T02:19:48.135Z,17.37
2016-12-05T02:20:16.334Z,17.47
2016-12-05T02:20:44.577Z,17.46
2016-12-05T02:21:12.724Z,17.44
2016-12-05T02:21:40.895Z,17.44
2016-12-05T02:22:09.058Z,17.46
2016-12-05T02:22:37.330Z,17.47
2016-12-05T02:23:05.531Z,17.42
2016-12-05T02:23:33.742Z,17.42
2016-12-05T02:24:01.907Z,17.39
2016-12-05T02:24:30.086Z,17.56
2016-12-05T02:24:58.249Z,17.57
2016-12-05T02:25:26.410Z,17.59
2016-12-05T02:25:54.586Z,17.54
2016-12-05T02:26:22.762Z,17.63
2016-12-05T02:26:50.914Z,17.65
2016-12-05T02:27:19.094Z,17.59
2016-12-05T02:27:47.336Z,17.52
2016-12-05T02:28:15.528Z,17.54
2016-12-05T02:28:43.687Z,17.63
2016-12-05T02:29:11.854Z,17.73
2016-12-05T02:29:40.032Z,17.71
2016-12-05T02:30:08.204Z,17.72
2016-12-05T02:30:36.380Z,17.72
2016-12-05T02:31:04.665Z,17.72
2016-12-05T02:31:32.819Z,17.78
2016-12-05T02:32:00.965Z,17.75
2016-12-05T02:32:29.135Z,17.76
2016-12-05T02:32:57.313Z,17.79
2016-12-05T02:33:25.477Z,17.75
2016-12-05T02:33:53.666Z,17.79
2016-12-05T02:34:21.822Z,17.79
2016-12-05T02:34:50.089Z,17.86
2016-12-05T02:35:18.258Z,17.78
2016-12-05T02:35:46.415Z,17.82
2016-12-05T02:36:14.599Z,17.78
2016-12-05T02:36:42.759Z,17.87
2016-12-05T02:37:10.955Z,17.9
2016-12-05T02:37:39.167Z,17.94
2016-12-05T02:38:07.352Z,17.94
2016-12-05T02:38:35.488Z,17.98
2016-12-05T02:39:03.665Z,17.93
2016-12-05T02:39:31.836Z,17.94
2016-12-05T02:40:00.006Z,18.03
2016-12-05T02:40:28.164Z,18.02
2016-12-05T02:40:56.342Z,18.03
2016-12-05T02:41:24.606Z,18.06
2016-12-05T02:41:52.775Z,18.08
2016-12-05T02:42:20.948Z,18.08
2016-12-05T02:42:49.136Z,18.12
2016-12-05T02:43:17.337Z,18.08
2016-12-05T02:43:45.519Z,18.08
2016-12-05T02:44:13.717Z,18.08
2016-12-05T02:44:41.870Z,18.06
2016-12-05T02:45:10.018Z,18.05
2016-12-05T02:45:38.275Z,18.05
2016-12-05T02:46:06.449Z,18.05
2016-12-05T02:46:34.577Z,18
2016-12-05T02:47:02.779Z,18.05
2016-12-05T02:47:30.929Z,18.05
2016-12-05T02:47:59.130Z,17.95
2016-12-05T02:48:27.292Z,17.9
2016-12-05T02:48:55.438Z,17.98
2016-12-05T02:49:23.598Z,18.02
2016-12-05T02:49:51.801Z,18.08
2016-12-05T02:50:19.953Z,18.03
2016-12-05T02:50:48.158Z,18.03
2016-12-05T02:51:16.377Z,17.98
2016-12-05T02:51:44.638Z,18.02
2016-12-05T02:52:12.807Z,17.94
2016-12-05T02:52:40.962Z,17.98
2016-12-05T02:53:09.129Z,18
2016-12-05T02:53:37.345Z,18
2016-12-05T02:54:05.597Z,18.03
2016-12-05T02:54:33.797Z,18
2016-12-05T02:55:02.002Z,18.03
2016-12-05T02:55:30.158Z,17.97
2016-12-05T02:55:58.365Z,17.97
2016-12-05T02:56:26.544Z,18
2016-12-05T02:56:54.719Z,17.97
2016-12-05T02:57:22.895Z,17.98
2016-12-05T02:57:51.054Z,17.98
2016-12-05T02:58:19.208Z,17.97
2016-12-05T02:58:47.361Z,18.02
2016-12-05T02:59:15.539Z,18.02
2016-12-05T02:59:43.832Z,17.97
2016-12-05T03:00:12.044Z,18.02
2016-12-05T03:00:40.232Z,18.05
2016-12-05T03:01:08.470Z,18.03
2016-12-05T03:01:36.633Z,18
2016-12-05T03:02:04.820Z,17.94
2016-12-05T03:02:32.993Z,17.95
2016-12-05T03:03:01.156Z,17.94
2016-12-05T03:03:29.332Z,17.94
2016-12-05T03:03:57.493Z,18.02
2016-12-05T03:04:25.663Z,18
2016-12-05T03:04:53.823Z,18.08
2016-12-05T03:05:22.017Z,17.98
2016-12-05T03:05:50.193Z,18
2016-12-05T03:06:18.367Z,18
2016-12-05T03:06:46.503Z,17.95
2016-12-05T03:07:14.655Z,17.97
2016-12-05T03:07:42.822Z,17.97
2016-12-05T03:08:11.024Z,18.08
2016-12-05T03:08:39.200Z,17.97
2016-12-05T03:09:07.383Z,17.98
2016-12-05T03:09:35.558Z,17.98
2016-12-05T03:10:03.750Z,18.02
2016-12-05T03:10:31.916Z,18.05
2016-12-05T03:11:00.191Z,18.06
2016-12-05T03:11:28.351Z,18.02
2016-12-05T03:11:56.491Z,18
2016-12-05T03:12:24.725Z,18.02
2016-12-05T03:12:52.880Z,17.95
2016-12-05T03:13:21.062Z,18.08
2016-12-05T03:13:49.225Z,18.02
2016-12-05T03:14:17.442Z,17.98
2016-12-05T03:14:45.618Z,18.03
2016-12-05T03:15:13.778Z,17.91
2016-12-05T03:15:41.936Z,17.95
2016-12-05T03:16:10.123Z,17.93
2016-12-05T03:16:38.295Z,18
2016-12-05T03:17:06.449Z,17.98
2016-12-05T03:17:34.633Z,17.91
2016-12-05T03:18:02.798Z,17.98
2016-12-05T03:18:31.046Z,17.98
2016-12-05T03:18:59.251Z,17.94
2016-12-05T03:19:27.419Z,17.94
2016-12-05T03:19:55.585Z,17.93
2016-12-05T03:20:23.847Z,17.91
2016-12-05T03:20:52.027Z,17.98
2016-12-05T03:21:20.240Z,17.94
2016-12-05T03:21:48.414Z,17.94
2016-12-05T03:22:16.589Z,17.95
2016-12-05T03:22:44.765Z,17.93
2016-12-05T03:23:12.924Z,17.93
2016-12-05T03:23:41.089Z,17.94
2016-12-05T03:24:09.241Z,17.9
2016-12-05T03:24:37.438Z,17.91
2016-12-05T03:25:05.608Z,17.95
2016-12-05T03:25:33.798Z,17.98
2016-12-05T03:26:01.981Z,18
2016-12-05T03:26:30.149Z,18.03
2016-12-05T03:26:58.339Z,18.08
2016-12-05T03:27:26.490Z,18
2016-12-05T03:27:54.628Z,18
2016-12-05T03:28:22.884Z,18
2016-12-05T03:28:51.063Z,18.05
2016-12-05T03:29:19.199Z,18.03
2016-12-05T03:29:47.341Z,18.03
2016-12-05T03:30:15.534Z,18.02
2016-12-05T03:30:43.784Z,18
2016-12-05T03:31:11.978Z,17.98
2016-12-05T03:31:40.144Z,18.03
2016-12-05T03:32:08.336Z,17.94
2016-12-05T03:32:36.499Z,17.94
2016-12-05T03:33:04.649Z,17.97
2016-12-05T03:33:32.802Z,17.95
2016-12-05T03:34:00.965Z,18.03
2016-12-05T03:34:29.121Z,18.02
2016-12-05T03:34:57.282Z,17.98
2016-12-05T03:35:25.461Z,18.02
2016-12-05T03:35:53.629Z,18.06
2016-12-05T03:36:21.796Z,18.06
2016-12-05T03:36:49.960Z,18.09
2016-12-05T03:37:18.137Z,18.08
2016-12-05T03:37:46.284Z,18.06
2016-12-05T03:38:14.474Z,18.11
2016-12-05T03:38:42.633Z,18.12
2016-12-05T03:39:10.893Z,18.11
2016-12-05T03:39:39.134Z,18.11
2016-12-05T03:40:07.327Z,18.09
2016-12-05T03:40:35.510Z,18.05
2016-12-05T03:41:03.700Z,18.08
2016-12-05T03:41:31.842Z,18.12
2016-12-05T03:42:00.005Z,18.05
2016-12-05T03:42:28.259Z,18.09
2016-12-05T03:42:56.414Z,18.03
2016-12-05T03:43:24.555Z,18.05
2016-12-05T03:43:52.812Z,17.95
2016-12-05T03:44:20.978Z,18.06
2016-12-05T03:44:49.144Z,18.02
2016-12-05T03:45:17.465Z,18
2016-12-05T03:45:45.673Z,17.97
2016-12-05T03:46:13.843Z,18
2016-12-05T03:46:42.055Z,17.97
2016-12-05T03:47:10.203Z,18.02
2016-12-05T03:47:38.396Z,18.02
2016-12-05T03:48:06.599Z,17.97
2016-12-05T03:48:34.867Z,18.03
2016-12-05T03:49:03.052Z,17.97
2016-12-05T03:49:31.317Z,17.91
2016-12-05T03:49:59.506Z,17.9
2016-12-05T03:50:31.693Z,17.98
2016-12-05T03:50:59.836Z,17.93
2016-12-05T03:51:28.023Z,17.94
2016-12-05T03:51:56.204Z,17.95
2016-12-05T03:52:24.340Z,17.93
2016-12-05T03:52:52.531Z,17.98
2016-12-05T03:53:20.691Z,17.94
2016-12-05T03:53:48.838Z,17.91
2016-12-05T03:54:16.999Z,17.91
2016-12-05T03:54:45.192Z,17.9
2016-12-05T03:55:13.364Z,17.9
2016-12-05T03:55:41.541Z,17.91
2016-12-05T03:56:09.705Z,17.9
2016-12-05T03:56:37.866Z,17.95
2016-12-05T03:57:05.999Z,17.88
2016-12-05T03:57:34.402Z,17.95
2016-12-05T03:58:02.543Z,17.91
2016-12-05T03:58:30.713Z,17.94
2016-12-05T03:58:58.903Z,17.94
2016-12-05T03:59:27.299Z,17.93
2016-12-05T03:59:55.461Z,17.97
2016-12-05T04:00:23.649Z,17.95
2016-12-05T04:00:51.827Z,17.94
2016-12-05T04:01:19.993Z,17.86
2016-12-05T04:01:48.224Z,17.94
2016-12-05T04:02:16.377Z,17.97
2016-12-05T04:02:44.548Z,17.93
2016-12-05T04:03:12.709Z,17.93
2016-12-05T04:03:40.962Z,17.95
2016-12-05T04:04:09.151Z,18.02
2016-12-05T04:04:37.335Z,18.03
2016-12-05T04:05:05.525Z,17.9
2016-12-05T04:05:33.666Z,17.98
2016-12-05T04:06:01.832Z,17.98
2016-12-05T04:06:30.094Z,18
2016-12-05T04:06:58.255Z,18
2016-12-05T04:07:26.406Z,18.06
2016-12-05T04:07:54.677Z,18.08
2016-12-05T04:08:22.876Z,18.03
2016-12-05T04:08:51.066Z,18.06
2016-12-05T04:09:19.267Z,18.05
2016-12-05T04:09:48.261Z,18
2016-12-05T04:10:16.421Z,18.06
2016-12-05T04:10:44.597Z,17.98
2016-12-05T04:11:12.784Z,18.05
2016-12-05T04:11:40.941Z,18
2016-12-05T04:12:09.208Z,17.94
2016-12-05T04:12:37.371Z,17.94
2016-12-05T04:13:05.571Z,17.95
2016-12-05T04:13:34.292Z,17.91
2016-12-05T04:14:02.737Z,17.93
2016-12-05T04:14:30.912Z,17.88
2016-12-05T04:14:59.070Z,17.9
2016-12-05T04:15:27.240Z,17.93
2016-12-05T04:15:55.416Z,17.94
2016-12-05T04:16:23.606Z,18
2016-12-05T04:16:51.776Z,18.02
2016-12-05T04:17:19.977Z,18
2016-12-05T04:17:48.159Z,18.05
2016-12-05T04:18:16.331Z,18.02
2016-12-05T04:18:44.507Z,18.11
2016-12-05T04:19:12.760Z,18.11
2016-12-05T04:19:40.922Z,18.15
2016-12-05T04:20:09.232Z,18.15
2016-12-05T04:20:37.418Z,18.05
2016-12-05T04:21:05.632Z,18.18
2016-12-05T04:21:33.911Z,18.15
2016-12-05T04:22:02.085Z,18.08
2016-12-05T04:22:30.268Z,18.12
2016-12-05T04:22:58.416Z,18.05
2016-12-05T04:23:26.574Z,18.11
2016-12-05T04:23:54.730Z,18.13
2016-12-05T04:24:22.866Z,18.13
2016-12-05T04:24:51.016Z,18.08
2016-12-05T04:25:19.169Z,18.05
2016-12-05T04:25:47.345Z,18.03
2016-12-05T04:26:15.521Z,18.06
2016-12-05T04:26:44.527Z,17.97
2016-12-05T04:27:12.701Z,17.97
2016-12-05T04:27:40.917Z,17.98
2016-12-05T04:28:09.084Z,17.91
2016-12-05T04:28:37.237Z,17.93
2016-12-05T04:29:05.394Z,17.88
2016-12-05T04:29:33.599Z,17.91
2016-12-05T04:30:01.854Z,17.97
2016-12-05T04:30:30.121Z,17.95
2016-12-05T04:30:58.328Z,17.97
2016-12-05T04:31:26.509Z,17.98
2016-12-05T04:31:54.699Z,17.94
2016-12-05T04:32:22.838Z,17.88
2016-12-05T04:32:51.143Z,17.87
2016-12-05T04:33:19.310Z,17.84
2016-12-05T04:33:47.505Z,17.9
2016-12-05T04:34:15.670Z,17.91
2016-12-05T04:34:43.864Z,17.88
2016-12-05T04:35:11.998Z,17.94
2016-12-05T04:35:40.253Z,17.93
2016-12-05T04:36:08.473Z,17.93
2016-12-05T04:36:36.643Z,17.94
2016-12-05T04:37:04.805Z,17.91
2016-12-05T04:37:32.963Z,17.93
2016-12-05T04:38:01.226Z,17.91
2016-12-05T04:38:29.469Z,17.94
2016-12-05T04:38:57.731Z,17.94
2016-12-05T04:39:25.897Z,17.95
2016-12-05T04:39:54.057Z,18
2016-12-05T04:40:22.244Z,17.97
2016-12-05T04:40:50.438Z,18.05
2016-12-05T04:41:18.602Z,18
2016-12-05T04:41:46.770Z,17.94
2016-12-05T04:42:14.934Z,17.95
2016-12-05T04:42:43.217Z,17.95
2016-12-05T04:43:11.479Z,17.93
2016-12-05T04:43:39.655Z,17.94
2016-12-05T04:44:07.809Z,17.97
2016-12-05T04:44:35.971Z,17.97
2016-12-05T04:45:04.133Z,17.95
2016-12-05T04:45:32.349Z,17.94
2016-12-05T04:46:00.543Z,17.95
2016-12-05T04:46:28.688Z,17.86
2016-12-05T04:46:56.855Z,17.93
2016-12-05T04:47:25.009Z,17.97
2016-12-05T04:47:53.151Z,18
2016-12-05T04:48:21.315Z,18
2016-12-05T04:48:49.463Z,17.98
2016-12-05T04:49:17.614Z,18
2016-12-05T04:49:45.778Z,18.03
2016-12-05T04:50:13.952Z,17.97
2016-12-05T04:50:42.105Z,18.02
2016-12-05T04:51:10.268Z,17.98
2016-12-05T04:51:38.440Z,18
2016-12-05T04:52:06.757Z,18.02
2016-12-05T04:52:35.003Z,18.03
2016-12-05T04:53:03.208Z,17.98
2016-12-05T04:53:31.390Z,18.05
2016-12-05T04:53:59.640Z,18.06
2016-12-05T04:54:27.825Z,18.13
2016-12-05T04:54:55.986Z,18.03
2016-12-05T04:55:24.187Z,18.06
2016-12-05T04:55:52.472Z,18
2016-12-05T04:56:20.620Z,18
2016-12-05T04:56:48.980Z,18.06
2016-12-05T04:57:17.159Z,18.08
2016-12-05T04:57:45.345Z,18.03
2016-12-05T04:58:13.485Z,17.94
2016-12-05T04:58:41.727Z,17.95
2016-12-05T04:59:09.890Z,17.97
2016-12-05T04:59:38.055Z,17.94
2016-12-05T05:00:06.371Z,17.91
2016-12-05T05:00:34.651Z,17.9
2016-12-05T05:01:02.833Z,17.87
2016-12-05T05:01:30.978Z,17.94
2016-12-05T05:01:59.143Z,17.84
2016-12-05T05:02:27.307Z,17.78
2016-12-05T05:02:55.473Z,17.82
2016-12-05T05:03:23.664Z,17.8
2016-12-05T05:03:51.879Z,17.78
2016-12-05T05:04:20.020Z,17.68
2016-12-05T05:04:48.198Z,17.59
2016-12-05T05:05:16.411Z,17.68
2016-12-05T05:05:44.570Z,17.63
2016-12-05T05:06:12.947Z,17.53
2016-12-05T05:06:41.132Z,17.49
2016-12-05T05:07:09.317Z,17.46
2016-12-05T05:07:37.561Z,17.35
2016-12-05T05:08:05.826Z,17.37
2016-12-05T05:08:34.010Z,17.42
2016-12-05T05:09:02.183Z,17.32
2016-12-05T05:09:30.458Z,17.24
2016-12-05T05:09:58.767Z,17.32
2016-12-05T05:10:26.926Z,17.27
2016-12-05T05:10:55.146Z,17.3
2016-12-05T05:11:23.414Z,17.28
2016-12-05T05:11:51.583Z,17.19
2016-12-05T05:12:19.755Z,17.24
2016-12-05T05:12:47.911Z,17.2
2016-12-05T05:13:16.197Z,17.14
2016-12-05T05:13:44.458Z,17.22
2016-12-05T05:14:12.641Z,17.22
2016-12-05T05:14:40.849Z,17.2
2016-12-05T05:15:09.075Z,17.19
2016-12-05T05:15:37.223Z,17.22
2016-12-05T05:16:05.513Z,17.19
2016-12-05T05:16:33.701Z,17.13
2016-12-05T05:17:01.879Z,17.2
2016-12-05T05:17:30.058Z,17.22
2016-12-05T05:17:58.275Z,17.27
2016-12-05T05:18:26.452Z,17.23
2016-12-05T05:18:54.711Z,17.23
2016-12-05T05:19:22.847Z,17.27
2016-12-05T05:19:51.020Z,17.28
2016-12-05T05:20:19.187Z,17.32
2016-12-05T05:20:47.359Z,17.24
2016-12-05T05:21:15.557Z,17.27
2016-12-05T05:21:43.848Z,17.24
2016-12-05T05:22:12.031Z,17.37
2016-12-05T05:22:40.194Z,17.28
2016-12-05T05:23:08.336Z,17.34
2016-12-05T05:23:36.519Z,17.34
2016-12-05T05:24:04.703Z,17.31
2016-12-05T05:24:32.879Z,17.32
2016-12-05T05:25:01.036Z,17.31
2016-12-05T05:25:29.219Z,17.31
2016-12-05T05:25:57.401Z,17.31
2016-12-05T05:26:25.536Z,17.34
2016-12-05T05:26:53.720Z,17.27
2016-12-05T05:27:21.883Z,17.28
2016-12-05T05:27:50.058Z,17.24
2016-12-05T05:28:18.327Z,17.3
2016-12-05T05:28:46.490Z,17.3
2016-12-05T05:29:14.688Z,17.27
2016-12-05T05:29:42.884Z,17.3
2016-12-05T05:30:11.091Z,17.27
2016-12-05T05:30:39.241Z,17.27
2016-12-05T05:31:07.392Z,17.23
2016-12-05T05:31:35.573Z,17.22
2016-12-05T05:32:03.761Z,17.22
2016-12-05T05:32:31.925Z,17.2
2016-12-05T05:33:00.176Z,17.2
2016-12-05T05:33:28.341Z,17.23
2016-12-05T05:33:56.535Z,17.22
2016-12-05T05:34:24.760Z,17.22
2016-12-05T05:34:52.926Z,17.23
2016-12-05T05:35:21.191Z,17.19
2016-12-05T05:35:49.350Z,17.31
2016-12-05T05:36:17.516Z,17.28
2016-12-05T05:36:45.702Z,17.23
2016-12-05T05:37:13.894Z,17.32
2016-12-05T05:37:42.077Z,17.27
2016-12-05T05:38:10.223Z,17.28
2016-12-05T05:38:38.387Z,17.31
2016-12-05T05:39:06.592Z,17.27
2016-12-05T05:39:34.733Z,17.3
2016-12-05T05:40:02.897Z,17.31
2016-12-05T05:40:31.169Z,17.28
2016-12-05T05:40:59.382Z,17.38
2016-12-05T05:41:27.558Z,17.31
2016-12-05T05:41:55.730Z,17.27
2016-12-05T05:42:23.910Z,17.41
2016-12-05T05:42:52.076Z,17.27
2016-12-05T05:43:20.223Z,17.3
2016-12-05T05:43:48.409Z,17.35
2016-12-05T05:44:16.626Z,17.32
2016-12-05T05:44:44.825Z,17.32
2016-12-05T05:45:12.983Z,17.32
2016-12-05T05:45:41.149Z,17.31
2016-12-05T05:46:09.300Z,17.37
2016-12-05T05:46:37.461Z,17.31
2016-12-05T05:47:05.620Z,17.37
2016-12-05T05:47:33.780Z,17.38
2016-12-05T05:48:02.008Z,17.37
2016-12-05T05:48:30.188Z,17.34
2016-12-05T05:48:58.316Z,17.38
2016-12-05T05:49:26.497Z,17.49
2016-12-05T05:49:54.671Z,17.37
2016-12-05T05:50:22.842Z,17.5
2016-12-05T05:50:51.042Z,17.41
2016-12-05T05:51:19.241Z,17.41
2016-12-05T05:51:47.395Z,17.49
2016-12-05T05:52:15.585Z,17.44
2016-12-05T05:52:43.844Z,17.44
2016-12-05T05:53:12.023Z,17.47
2016-12-05T05:53:40.198Z,17.46
2016-12-05T05:54:08.361Z,17.47
2016-12-05T05:54:36.641Z,17.49
2016-12-05T05:55:04.918Z,17.54
2016-12-05T05:55:33.119Z,17.56
2016-12-05T05:56:01.275Z,17.57
2016-12-05T05:56:29.498Z,17.59
2016-12-05T05:56:57.686Z,17.6
2016-12-05T05:57:25.980Z,17.63
2016-12-05T05:57:54.200Z,17.59
2016-12-05T05:58:22.358Z,17.59
2016-12-05T05:58:50.568Z,17.59
2016-12-05T05:59:18.862Z,17.68
2016-12-05T05:59:47.023Z,17.63
2016-12-05T06:00:15.268Z,17.59
2016-12-05T06:00:43.446Z,17.6
2016-12-05T06:01:11.638Z,17.59
2016-12-05T06:01:39.804Z,17.59
2016-12-05T06:02:07.994Z,17.63
2016-12-05T06:02:36.180Z,17.56
2016-12-05T06:03:04.340Z,17.56
2016-12-05T06:03:32.505Z,17.57
2016-12-05T06:04:00.657Z,17.53
2016-12-05T06:04:28.877Z,17.56
2016-12-05T06:04:57.068Z,17.69
2016-12-05T06:05:25.266Z,17.56